Terminal Aerodrome Forecast
Issued by NWS

Home | Current Version | Previous Version | Text Only | Print | Product List | Glossary On
Versions: 1 2 3 4 5 6 7 8 9 10 11 12 13 14
000
FTUS45 KBOI 312321
TAFTWF
TAF
KTWF 312321Z 0100/0124 03008KT P6SM OVC150
     FM010400 15012KT P6SM BKN150
     FM011600 18018KT P6SM FEW050 OVC120
     FM012200 23018G23KT P6SM VCSH SCT050 OVC100=

USA.gov is the U.S. government's official web portal to all federal, state and local government web resources and services.